sensor_id;sensor_type;location;lat;lon;timestamp;P1;durP1;ratioP1;P2;durP2;ratioP2
2299;SDS011;1158;48.750;9.078;2024-01-27T00:00:13;15.23;;;4.43;;
2299;SDS011;1158;48.750;9.078;2024-01-27T00:02:41;9.73;;;4.37;;
2299;SDS011;1158;48.750;9.078;2024-01-27T00:05:07;9.23;;;4.50;;
2299;SDS011;1158;48.750;9.078;2024-01-27T00:07:34;10.07;;;3.10;;
2299;SDS011;1158;48.750;9.078;2024-01-27T00:10:03;6.43;;;2.70;;
2299;SDS011;1158;48.750;9.078;2024-01-27T00:12:30;6.60;;;3.57;;
2299;SDS011;1158;48.750;9.078;2024-01-27T00:14:56;4.23;;;3.03;;
2299;SDS011;1158;48.750;9.078;2024-01-27T00:17:22;6.40;;;3.43;;
2299;SDS011;1158;48.750;9.078;2024-01-27T00:19:51;7.80;;;4.10;;
2299;SDS011;1158;48.750;9.078;2024-01-27T00:22:18;7.67;;;4.83;;
2299;SDS011;1158;48.750;9.078;2024-01-27T00:24:45;7.60;;;3.90;;
2299;SDS011;1158;48.750;9.078;2024-01-27T00:27:14;5.00;;;3.03;;
2299;SDS011;1158;48.750;9.078;2024-01-27T00:29:41;7.17;;;2.77;;
2299;SDS011;1158;48.750;9.078;2024-01-27T00:32:08;13.10;;;2.80;;
2299;SDS011;1158;48.750;9.078;2024-01-27T00:34:34;5.03;;;2.80;;
2299;SDS011;1158;48.750;9.078;2024-01-27T00:37:01;3.87;;;2.77;;
2299;SDS011;1158;48.750;9.078;2024-01-27T00:39:28;5.90;;;2.27;;
2299;SDS011;1158;48.750;9.078;2024-01-27T00:41:55;8.83;;;2.83;;
2299;SDS011;1158;48.750;9.078;2024-01-27T00:44:24;7.37;;;2.67;;
2299;SDS011;1158;48.750;9.078;2024-01-27T00:46:51;9.67;;;2.57;;
2299;SDS011;1158;48.750;9.078;2024-01-27T00:49:18;5.17;;;2.80;;
2299;SDS011;1158;48.750;9.078;2024-01-27T00:51:45;3.33;;;2.40;;
2299;SDS011;1158;48.750;9.078;2024-01-27T00:54:12;2.93;;;2.00;;
2299;SDS011;1158;48.750;9.078;2024-01-27T00:56:39;5.97;;;2.27;;
2299;SDS011;1158;48.750;9.078;2024-01-27T00:59:05;5.93;;;2.10;;
2299;SDS011;1158;48.750;9.078;2024-01-27T01:01:33;4.97;;;2.83;;
2299;SDS011;1158;48.750;9.078;2024-01-27T01:04:00;6.53;;;2.10;;
2299;SDS011;1158;48.750;9.078;2024-01-27T01:06:27;4.53;;;2.13;;
2299;SDS011;1158;48.750;9.078;2024-01-27T01:08:54;4.90;;;2.80;;
2299;SDS011;1158;48.750;9.078;2024-01-27T01:11:20;5.83;;;1.87;;
2299;SDS011;1158;48.750;9.078;2024-01-27T01:13:47;7.17;;;2.97;;
2299;SDS011;1158;48.750;9.078;2024-01-27T01:16:14;4.03;;;2.07;;
2299;SDS011;1158;48.750;9.078;2024-01-27T01:18:42;4.87;;;2.30;;
2299;SDS011;1158;48.750;9.078;2024-01-27T01:21:09;3.60;;;2.40;;
2299;SDS011;1158;48.750;9.078;2024-01-27T01:23:35;5.17;;;2.07;;
2299;SDS011;1158;48.750;9.078;2024-01-27T01:26:02;5.27;;;2.30;;
2299;SDS011;1158;48.750;9.078;2024-01-27T01:28:29;3.73;;;2.30;;
2299;SDS011;1158;48.750;9.078;2024-01-27T01:30:57;5.47;;;2.37;;
2299;SDS011;1158;48.750;9.078;2024-01-27T01:33:24;3.60;;;2.63;;
2299;SDS011;1158;48.750;9.078;2024-01-27T01:35:52;7.10;;;2.73;;
2299;SDS011;1158;48.750;9.078;2024-01-27T01:38:18;4.60;;;2.37;;
2299;SDS011;1158;48.750;9.078;2024-01-27T01:40:45;5.70;;;2.10;;
2299;SDS011;1158;48.750;9.078;2024-01-27T01:43:12;5.37;;;1.97;;
2299;SDS011;1158;48.750;9.078;2024-01-27T01:45:39;3.40;;;2.47;;
2299;SDS011;1158;48.750;9.078;2024-01-27T01:48:06;8.83;;;2.27;;
2299;SDS011;1158;48.750;9.078;2024-01-27T01:50:33;4.60;;;2.50;;
2299;SDS011;1158;48.750;9.078;2024-01-27T01:53:02;5.30;;;2.37;;
2299;SDS011;1158;48.750;9.078;2024-01-27T01:55:30;5.27;;;2.00;;
2299;SDS011;1158;48.750;9.078;2024-01-27T01:57:57;5.30;;;2.57;;
2299;SDS011;1158;48.750;9.078;2024-01-27T02:00:23;5.20;;;2.40;;
2299;SDS011;1158;48.750;9.078;2024-01-27T02:02:50;3.77;;;2.40;;
2299;SDS011;1158;48.750;9.078;2024-01-27T02:05:17;4.30;;;2.40;;
2299;SDS011;1158;48.750;9.078;2024-01-27T02:07:44;6.23;;;2.63;;
2299;SDS011;1158;48.750;9.078;2024-01-27T02:10:15;6.93;;;2.60;;
2299;SDS011;1158;48.750;9.078;2024-01-27T02:12:43;3.50;;;2.27;;
2299;SDS011;1158;48.750;9.078;2024-01-27T02:15:10;5.40;;;2.47;;
2299;SDS011;1158;48.750;9.078;2024-01-27T02:17:38;4.33;;;2.50;;
2299;SDS011;1158;48.750;9.078;2024-01-27T02:20:06;6.67;;;2.50;;
2299;SDS011;1158;48.750;9.078;2024-01-27T02:22:33;5.00;;;2.30;;
2299;SDS011;1158;48.750;9.078;2024-01-27T02:25:01;9.40;;;2.47;;
2299;SDS011;1158;48.750;9.078;2024-01-27T02:27:29;4.50;;;3.00;;
2299;SDS011;1158;48.750;9.078;2024-01-27T02:29:55;4.63;;;2.30;;
2299;SDS011;1158;48.750;9.078;2024-01-27T02:32:22;9.60;;;2.83;;
2299;SDS011;1158;48.750;9.078;2024-01-27T02:34:49;5.03;;;2.77;;
2299;SDS011;1158;48.750;9.078;2024-01-27T02:37:16;5.70;;;2.83;;
2299;SDS011;1158;48.750;9.078;2024-01-27T02:39:44;4.40;;;2.87;;
2299;SDS011;1158;48.750;9.078;2024-01-27T02:42:12;11.90;;;3.57;;
2299;SDS011;1158;48.750;9.078;2024-01-27T02:44:38;4.93;;;2.57;;
2299;SDS011;1158;48.750;9.078;2024-01-27T02:47:05;6.50;;;2.23;;
2299;SDS011;1158;48.750;9.078;2024-01-27T02:49:32;4.27;;;2.77;;
2299;SDS011;1158;48.750;9.078;2024-01-27T02:51:59;6.83;;;2.57;;
2299;SDS011;1158;48.750;9.078;2024-01-27T02:54:26;7.27;;;2.67;;
2299;SDS011;1158;48.750;9.078;2024-01-27T02:56:52;10.43;;;3.33;;
2299;SDS011;1158;48.750;9.078;2024-01-27T02:59:20;3.27;;;2.57;;
2299;SDS011;1158;48.750;9.078;2024-01-27T03:01:47;8.80;;;3.00;;
2299;SDS011;1158;48.750;9.078;2024-01-27T03:04:14;4.40;;;2.70;;
2299;SDS011;1158;48.750;9.078;2024-01-27T03:06:41;6.50;;;2.27;;
2299;SDS011;1158;48.750;9.078;2024-01-27T03:09:08;5.80;;;2.43;;
2299;SDS011;1158;48.750;9.078;2024-01-27T03:11:35;7.40;;;2.33;;
2299;SDS011;1158;48.750;9.078;2024-01-27T03:14:02;4.13;;;2.53;;
2299;SDS011;1158;48.750;9.078;2024-01-27T03:16:30;6.10;;;2.20;;
2299;SDS011;1158;48.750;9.078;2024-01-27T03:18:57;4.37;;;2.40;;
2299;SDS011;1158;48.750;9.078;2024-01-27T03:21:24;9.10;;;2.50;;
2299;SDS011;1158;48.750;9.078;2024-01-27T03:23:51;9.80;;;2.67;;
2299;SDS011;1158;48.750;9.078;2024-01-27T03:26:18;5.53;;;2.47;;
2299;SDS011;1158;48.750;9.078;2024-01-27T03:28:45;9.83;;;3.20;;
2299;SDS011;1158;48.750;9.078;2024-01-27T03:31:12;4.73;;;2.70;;
2299;SDS011;1158;48.750;9.078;2024-01-27T03:33:40;12.00;;;3.40;;
2299;SDS011;1158;48.750;9.078;2024-01-27T03:36:09;4.93;;;2.97;;
2299;SDS011;1158;48.750;9.078;2024-01-27T03:38:36;6.90;;;2.77;;
2299;SDS011;1158;48.750;9.078;2024-01-27T03:41:03;9.93;;;3.03;;
2299;SDS011;1158;48.750;9.078;2024-01-27T03:43:30;6.13;;;3.10;;
2299;SDS011;1158;48.750;9.078;2024-01-27T03:45:57;10.20;;;4.50;;
2299;SDS011;1158;48.750;9.078;2024-01-27T03:48:24;4.20;;;2.40;;
2299;SDS011;1158;48.750;9.078;2024-01-27T03:50:52;5.23;;;2.20;;
2299;SDS011;1158;48.750;9.078;2024-01-27T03:53:19;9.63;;;2.90;;
2299;SDS011;1158;48.750;9.078;2024-01-27T03:55:46;7.13;;;2.70;;
2299;SDS011;1158;48.750;9.078;2024-01-27T03:58:12;4.03;;;2.80;;
2299;SDS011;1158;48.750;9.078;2024-01-27T04:00:39;9.50;;;2.97;;
2299;SDS011;1158;48.750;9.078;2024-01-27T04:03:06;5.97;;;2.90;;
2299;SDS011;1158;48.750;9.078;2024-01-27T04:05:34;5.93;;;2.70;;
2299;SDS011;1158;48.750;9.078;2024-01-27T04:08:04;5.90;;;2.80;;
2299;SDS011;1158;48.750;9.078;2024-01-27T04:10:31;7.97;;;2.63;;
2299;SDS011;1158;48.750;9.078;2024-01-27T04:12:59;4.30;;;2.30;;
2299;SDS011;1158;48.750;9.078;2024-01-27T04:15:26;11.90;;;2.90;;
2299;SDS011;1158;48.750;9.078;2024-01-27T04:17:52;11.53;;;3.57;;
2299;SDS011;1158;48.750;9.078;2024-01-27T04:20:20;17.03;;;2.57;;
2299;SDS011;1158;48.750;9.078;2024-01-27T04:22:47;5.13;;;2.50;;
2299;SDS011;1158;48.750;9.078;2024-01-27T04:25:15;5.50;;;2.60;;
2299;SDS011;1158;48.750;9.078;2024-01-27T04:27:42;7.93;;;3.00;;
2299;SDS011;1158;48.750;9.078;2024-01-27T04:30:10;5.70;;;2.77;;
2299;SDS011;1158;48.750;9.078;2024-01-27T04:32:37;8.83;;;2.90;;
2299;SDS011;1158;48.750;9.078;2024-01-27T04:35:06;7.73;;;3.07;;
2299;SDS011;1158;48.750;9.078;2024-01-27T04:37:35;7.83;;;2.70;;
2299;SDS011;1158;48.750;9.078;2024-01-27T04:40:02;8.70;;;2.97;;
2299;SDS011;1158;48.750;9.078;2024-01-27T04:42:32;9.60;;;2.73;;
2299;SDS011;1158;48.750;9.078;2024-01-27T04:44:59;8.50;;;3.60;;
2299;SDS011;1158;48.750;9.078;2024-01-27T04:47:25;7.27;;;3.20;;
2299;SDS011;1158;48.750;9.078;2024-01-27T04:49:53;6.63;;;2.83;;
2299;SDS011;1158;48.750;9.078;2024-01-27T04:52:20;11.57;;;3.57;;
2299;SDS011;1158;48.750;9.078;2024-01-27T04:54:47;12.40;;;3.47;;
2299;SDS011;1158;48.750;9.078;2024-01-27T04:57:13;11.10;;;3.57;;
2299;SDS011;1158;48.750;9.078;2024-01-27T04:59:42;5.10;;;3.00;;
2299;SDS011;1158;48.750;9.078;2024-01-27T05:02:08;8.13;;;3.07;;
2299;SDS011;1158;48.750;9.078;2024-01-27T05:04:36;8.63;;;3.50;;
2299;SDS011;1158;48.750;9.078;2024-01-27T05:07:03;4.97;;;2.90;;
2299;SDS011;1158;48.750;9.078;2024-01-27T05:09:30;8.10;;;3.10;;
2299;SDS011;1158;48.750;9.078;2024-01-27T05:11:59;4.87;;;2.90;;
2299;SDS011;1158;48.750;9.078;2024-01-27T05:14:26;7.90;;;3.10;;
2299;SDS011;1158;48.750;9.078;2024-01-27T05:16:54;6.80;;;3.90;;
2299;SDS011;1158;48.750;9.078;2024-01-27T05:19:21;8.80;;;3.53;;
2299;SDS011;1158;48.750;9.078;2024-01-27T05:21:48;7.53;;;3.30;;
2299;SDS011;1158;48.750;9.078;2024-01-27T05:24:14;8.60;;;3.57;;
2299;SDS011;1158;48.750;9.078;2024-01-27T05:26:41;8.93;;;3.13;;
2299;SDS011;1158;48.750;9.078;2024-01-27T05:29:08;13.20;;;3.47;;
2299;SDS011;1158;48.750;9.078;2024-01-27T05:31:35;12.63;;;3.20;;
2299;SDS011;1158;48.750;9.078;2024-01-27T05:34:03;9.40;;;3.40;;
2299;SDS011;1158;48.750;9.078;2024-01-27T05:36:30;4.73;;;3.50;;
2299;SDS011;1158;48.750;9.078;2024-01-27T05:38:57;5.67;;;2.80;;
2299;SDS011;1158;48.750;9.078;2024-01-27T05:41:25;7.07;;;2.87;;
2299;SDS011;1158;48.750;9.078;2024-01-27T05:43:54;5.33;;;3.20;;
2299;SDS011;1158;48.750;9.078;2024-01-27T05:46:22;8.50;;;3.20;;
2299;SDS011;1158;48.750;9.078;2024-01-27T05:48:49;8.20;;;2.93;;
2299;SDS011;1158;48.750;9.078;2024-01-27T05:51:20;8.00;;;3.20;;
2299;SDS011;1158;48.750;9.078;2024-01-27T05:53:47;7.73;;;3.13;;
2299;SDS011;1158;48.750;9.078;2024-01-27T05:56:14;8.33;;;3.73;;
2299;SDS011;1158;48.750;9.078;2024-01-27T05:58:41;6.13;;;3.60;;
2299;SDS011;1158;48.750;9.078;2024-01-27T06:01:07;6.73;;;3.43;;
2299;SDS011;1158;48.750;9.078;2024-01-27T06:03:34;10.67;;;3.77;;
2299;SDS011;1158;48.750;9.078;2024-01-27T06:06:01;11.30;;;3.57;;
2299;SDS011;1158;48.750;9.078;2024-01-27T06:08:30;8.20;;;3.30;;
2299;SDS011;1158;48.750;9.078;2024-01-27T06:10:56;6.33;;;2.70;;
2299;SDS011;1158;48.750;9.078;2024-01-27T06:13:23;13.43;;;3.30;;
2299;SDS011;1158;48.750;9.078;2024-01-27T06:15:50;10.37;;;3.40;;
2299;SDS011;1158;48.750;9.078;2024-01-27T06:18:17;8.20;;;3.00;;
2299;SDS011;1158;48.750;9.078;2024-01-27T06:20:43;3.50;;;2.77;;
2299;SDS011;1158;48.750;9.078;2024-01-27T06:23:10;4.93;;;3.10;;
2299;SDS011;1158;48.750;9.078;2024-01-27T06:25:38;6.30;;;3.10;;
2299;SDS011;1158;48.750;9.078;2024-01-27T06:28:05;9.50;;;3.60;;
2299;SDS011;1158;48.750;9.078;2024-01-27T06:30:32;6.80;;;2.73;;
2299;SDS011;1158;48.750;9.078;2024-01-27T06:32:59;8.53;;;3.43;;
2299;SDS011;1158;48.750;9.078;2024-01-27T06:35:25;6.70;;;2.67;;
2299;SDS011;1158;48.750;9.078;2024-01-27T06:37:52;10.50;;;2.80;;
2299;SDS011;1158;48.750;9.078;2024-01-27T06:40:19;7.47;;;2.60;;
2299;SDS011;1158;48.750;9.078;2024-01-27T06:42:47;9.63;;;2.97;;
2299;SDS011;1158;48.750;9.078;2024-01-27T06:45:13;11.20;;;2.90;;
2299;SDS011;1158;48.750;9.078;2024-01-27T06:47:40;6.43;;;2.87;;
2299;SDS011;1158;48.750;9.078;2024-01-27T06:50:07;8.60;;;3.17;;
2299;SDS011;1158;48.750;9.078;2024-01-27T06:52:35;7.17;;;3.20;;
2299;SDS011;1158;48.750;9.078;2024-01-27T06:55:02;15.80;;;3.27;;
2299;SDS011;1158;48.750;9.078;2024-01-27T06:57:32;8.67;;;3.63;;
2299;SDS011;1158;48.750;9.078;2024-01-27T07:00:00;5.50;;;2.90;;
2299;SDS011;1158;48.750;9.078;2024-01-27T07:02:28;8.53;;;3.20;;
2299;SDS011;1158;48.750;9.078;2024-01-27T07:04:55;8.23;;;2.93;;
2299;SDS011;1158;48.750;9.078;2024-01-27T07:07:22;7.87;;;3.23;;
2299;SDS011;1158;48.750;9.078;2024-01-27T07:09:51;6.50;;;3.23;;
2299;SDS011;1158;48.750;9.078;2024-01-27T07:12:18;7.80;;;3.23;;
2299;SDS011;1158;48.750;9.078;2024-01-27T07:14:45;8.17;;;3.40;;
2299;SDS011;1158;48.750;9.078;2024-01-27T07:17:13;6.27;;;2.67;;
2299;SDS011;1158;48.750;9.078;2024-01-27T07:19:40;9.57;;;3.00;;
2299;SDS011;1158;48.750;9.078;2024-01-27T07:22:06;9.83;;;3.10;;
2299;SDS011;1158;48.750;9.078;2024-01-27T07:24:33;7.43;;;2.67;;
2299;SDS011;1158;48.750;9.078;2024-01-27T07:27:00;9.03;;;3.23;;
2299;SDS011;1158;48.750;9.078;2024-01-27T07:29:27;5.97;;;2.70;;
2299;SDS011;1158;48.750;9.078;2024-01-27T07:31:54;6.20;;;3.10;;
2299;SDS011;1158;48.750;9.078;2024-01-27T07:34:22;10.20;;;3.10;;
2299;SDS011;1158;48.750;9.078;2024-01-27T07:36:49;7.03;;;3.13;;
2299;SDS011;1158;48.750;9.078;2024-01-27T07:39:16;4.70;;;2.87;;
2299;SDS011;1158;48.750;9.078;2024-01-27T07:41:42;7.37;;;3.97;;
2299;SDS011;1158;48.750;9.078;2024-01-27T07:44:09;8.33;;;3.77;;
2299;SDS011;1158;48.750;9.078;2024-01-27T07:46:37;7.43;;;3.87;;
2299;SDS011;1158;48.750;9.078;2024-01-27T07:49:04;7.93;;;4.90;;
2299;SDS011;1158;48.750;9.078;2024-01-27T07:51:33;9.83;;;4.30;;
2299;SDS011;1158;48.750;9.078;2024-01-27T07:54:00;9.87;;;4.40;;
2299;SDS011;1158;48.750;9.078;2024-01-27T07:56:27;9.40;;;3.70;;
2299;SDS011;1158;48.750;9.078;2024-01-27T07:58:54;6.80;;;2.50;;
2299;SDS011;1158;48.750;9.078;2024-01-27T08:01:20;7.80;;;3.50;;
2299;SDS011;1158;48.750;9.078;2024-01-27T08:03:47;7.67;;;3.17;;
2299;SDS011;1158;48.750;9.078;2024-01-27T08:06:15;4.33;;;2.33;;
2299;SDS011;1158;48.750;9.078;2024-01-27T08:08:45;4.07;;;2.50;;
2299;SDS011;1158;48.750;9.078;2024-01-27T08:11:12;4.43;;;2.30;;
2299;SDS011;1158;48.750;9.078;2024-01-27T08:13:39;4.87;;;2.20;;
2299;SDS011;1158;48.750;9.078;2024-01-27T08:16:06;3.47;;;2.30;;
2299;SDS011;1158;48.750;9.078;2024-01-27T08:18:34;5.23;;;2.10;;
2299;SDS011;1158;48.750;9.078;2024-01-27T08:21:02;3.90;;;2.20;;
2299;SDS011;1158;48.750;9.078;2024-01-27T08:23:29;5.10;;;2.37;;
2299;SDS011;1158;48.750;9.078;2024-01-27T08:25:57;4.87;;;2.60;;
2299;SDS011;1158;48.750;9.078;2024-01-27T08:28:24;4.93;;;2.33;;
2299;SDS011;1158;48.750;9.078;2024-01-27T08:30:51;4.57;;;1.90;;
2299;SDS011;1158;48.750;9.078;2024-01-27T08:33:17;3.13;;;2.00;;
2299;SDS011;1158;48.750;9.078;2024-01-27T08:35:45;5.43;;;2.30;;
2299;SDS011;1158;48.750;9.078;2024-01-27T08:38:13;7.63;;;2.90;;
2299;SDS011;1158;48.750;9.078;2024-01-27T08:40:39;4.23;;;2.23;;
2299;SDS011;1158;48.750;9.078;2024-01-27T08:43:07;5.97;;;2.13;;
2299;SDS011;1158;48.750;9.078;2024-01-27T08:45:35;4.23;;;2.63;;
2299;SDS011;1158;48.750;9.078;2024-01-27T08:48:03;5.23;;;2.23;;
2299;SDS011;1158;48.750;9.078;2024-01-27T08:50:30;5.63;;;2.77;;
2299;SDS011;1158;48.750;9.078;2024-01-27T08:52:57;3.73;;;2.33;;
2299;SDS011;1158;48.750;9.078;2024-01-27T08:55:24;3.73;;;2.73;;
2299;SDS011;1158;48.750;9.078;2024-01-27T08:57:50;3.80;;;1.97;;
2299;SDS011;1158;48.750;9.078;2024-01-27T09:00:19;6.50;;;2.70;;
2299;SDS011;1158;48.750;9.078;2024-01-27T09:02:46;5.30;;;2.40;;
2299;SDS011;1158;48.750;9.078;2024-01-27T09:05:13;5.30;;;2.37;;
2299;SDS011;1158;48.750;9.078;2024-01-27T09:07:39;4.60;;;2.33;;
2299;SDS011;1158;48.750;9.078;2024-01-27T09:10:06;6.40;;;2.30;;
2299;SDS011;1158;48.750;9.078;2024-01-27T09:12:34;6.40;;;2.73;;
2299;SDS011;1158;48.750;9.078;2024-01-27T09:15:01;5.27;;;2.50;;
2299;SDS011;1158;48.750;9.078;2024-01-27T09:17:29;4.57;;;2.37;;
2299;SDS011;1158;48.750;9.078;2024-01-27T09:19:56;5.27;;;2.63;;
2299;SDS011;1158;48.750;9.078;2024-01-27T09:22:22;3.57;;;2.30;;
2299;SDS011;1158;48.750;9.078;2024-01-27T09:24:50;4.53;;;2.40;;
2299;SDS011;1158;48.750;9.078;2024-01-27T09:27:18;6.17;;;2.63;;
2299;SDS011;1158;48.750;9.078;2024-01-27T09:29:44;8.23;;;3.17;;
2299;SDS011;1158;48.750;9.078;2024-01-27T09:32:11;6.50;;;3.00;;
2299;SDS011;1158;48.750;9.078;2024-01-27T09:34:39;6.47;;;3.43;;
2299;SDS011;1158;48.750;9.078;2024-01-27T09:37:06;6.87;;;3.27;;
2299;SDS011;1158;48.750;9.078;2024-01-27T09:39:33;5.87;;;3.07;;
2299;SDS011;1158;48.750;9.078;2024-01-27T09:42:00;5.10;;;2.90;;
2299;SDS011;1158;48.750;9.078;2024-01-27T09:44:31;6.77;;;2.77;;
2299;SDS011;1158;48.750;9.078;2024-01-27T09:46:58;10.67;;;3.40;;
2299;SDS011;1158;48.750;9.078;2024-01-27T09:49:25;6.43;;;2.90;;
2299;SDS011;1158;48.750;9.078;2024-01-27T09:51:54;9.80;;;2.80;;
2299;SDS011;1158;48.750;9.078;2024-01-27T09:54:21;10.90;;;3.80;;
2299;SDS011;1158;48.750;9.078;2024-01-27T09:56:48;11.33;;;2.87;;
2299;SDS011;1158;48.750;9.078;2024-01-27T09:59:16;5.00;;;3.20;;
2299;SDS011;1158;48.750;9.078;2024-01-27T10:01:45;6.13;;;2.83;;
2299;SDS011;1158;48.750;9.078;2024-01-27T10:04:16;6.63;;;3.13;;
2299;SDS011;1158;48.750;9.078;2024-01-27T10:06:44;10.77;;;3.30;;
2299;SDS011;1158;48.750;9.078;2024-01-27T10:09:13;5.63;;;3.43;;
2299;SDS011;1158;48.750;9.078;2024-01-27T10:11:41;4.60;;;2.30;;
2299;SDS011;1158;48.750;9.078;2024-01-27T10:14:12;5.80;;;3.00;;
2299;SDS011;1158;48.750;9.078;2024-01-27T10:16:40;7.10;;;2.40;;
2299;SDS011;1158;48.750;9.078;2024-01-27T10:19:08;14.93;;;3.00;;
2299;SDS011;1158;48.750;9.078;2024-01-27T10:21:40;8.30;;;2.70;;
2299;SDS011;1158;48.750;9.078;2024-01-27T10:24:07;9.13;;;3.17;;
2299;SDS011;1158;48.750;9.078;2024-01-27T10:26:35;6.57;;;3.13;;
2299;SDS011;1158;48.750;9.078;2024-01-27T10:29:01;10.20;;;3.27;;
2299;SDS011;1158;48.750;9.078;2024-01-27T10:31:29;7.80;;;3.23;;
2299;SDS011;1158;48.750;9.078;2024-01-27T10:33:56;7.47;;;3.50;;
2299;SDS011;1158;48.750;9.078;2024-01-27T10:36:24;9.17;;;3.53;;
2299;SDS011;1158;48.750;9.078;2024-01-27T10:38:51;9.67;;;3.23;;
2299;SDS011;1158;48.750;9.078;2024-01-27T10:41:20;11.83;;;3.57;;
2299;SDS011;1158;48.750;9.078;2024-01-27T10:43:50;13.43;;;4.13;;
2299;SDS011;1158;48.750;9.078;2024-01-27T10:46:18;8.43;;;3.17;;
2299;SDS011;1158;48.750;9.078;2024-01-27T10:48:47;12.70;;;3.80;;
2299;SDS011;1158;48.750;9.078;2024-01-27T10:51:18;9.17;;;4.10;;
2299;SDS011;1158;48.750;9.078;2024-01-27T10:53:50;7.33;;;4.50;;
2299;SDS011;1158;48.750;9.078;2024-01-27T10:56:20;7.17;;;3.63;;
2299;SDS011;1158;48.750;9.078;2024-01-27T10:58:48;10.53;;;3.23;;
2299;SDS011;1158;48.750;9.078;2024-01-27T11:01:18;7.07;;;3.37;;
2299;SDS011;1158;48.750;9.078;2024-01-27T11:03:47;10.80;;;3.63;;
2299;SDS011;1158;48.750;9.078;2024-01-27T11:06:15;9.93;;;4.03;;
2299;SDS011;1158;48.750;9.078;2024-01-27T11:08:46;7.27;;;3.60;;
2299;SDS011;1158;48.750;9.078;2024-01-27T11:11:14;9.50;;;3.23;;
2299;SDS011;1158;48.750;9.078;2024-01-27T11:13:42;10.20;;;4.00;;
2299;SDS011;1158;48.750;9.078;2024-01-27T11:16:15;9.53;;;3.90;;
2299;SDS011;1158;48.750;9.078;2024-01-27T11:18:43;14.30;;;3.70;;
2299;SDS011;1158;48.750;9.078;2024-01-27T11:21:12;8.00;;;3.53;;
2299;SDS011;1158;48.750;9.078;2024-01-27T11:23:40;7.33;;;3.60;;
2299;SDS011;1158;48.750;9.078;2024-01-27T11:26:08;14.63;;;3.80;;
2299;SDS011;1158;48.750;9.078;2024-01-27T11:28:39;9.30;;;3.50;;
2299;SDS011;1158;48.750;9.078;2024-01-27T11:31:06;8.13;;;4.20;;
2299;SDS011;1158;48.750;9.078;2024-01-27T11:33:39;8.10;;;4.47;;
2299;SDS011;1158;48.750;9.078;2024-01-27T11:36:07;5.50;;;3.90;;
2299;SDS011;1158;48.750;9.078;2024-01-27T11:38:35;9.37;;;4.37;;
2299;SDS011;1158;48.750;9.078;2024-01-27T11:41:01;8.43;;;3.87;;
2299;SDS011;1158;48.750;9.078;2024-01-27T11:43:29;8.40;;;3.77;;
2299;SDS011;1158;48.750;9.078;2024-01-27T11:45:56;8.43;;;3.83;;
2299;SDS011;1158;48.750;9.078;2024-01-27T11:48:23;13.57;;;5.40;;
2299;SDS011;1158;48.750;9.078;2024-01-27T11:51:01;46.43;;;11.00;;
2299;SDS011;1158;48.750;9.078;2024-01-27T11:53:33;12.80;;;5.20;;
2299;SDS011;1158;48.750;9.078;2024-01-27T11:55:59;35.83;;;9.00;;
2299;SDS011;1158;48.750;9.078;2024-01-27T11:58:26;15.57;;;4.50;;
2299;SDS011;1158;48.750;9.078;2024-01-27T12:00:55;5.43;;;3.40;;
2299;SDS011;1158;48.750;9.078;2024-01-27T12:03:22;13.23;;;3.90;;
2299;SDS011;1158;48.750;9.078;2024-01-27T12:05:49;8.60;;;3.80;;
2299;SDS011;1158;48.750;9.078;2024-01-27T12:08:17;10.33;;;3.50;;
2299;SDS011;1158;48.750;9.078;2024-01-27T12:10:44;8.43;;;3.60;;
2299;SDS011;1158;48.750;9.078;2024-01-27T12:13:10;8.67;;;4.20;;
2299;SDS011;1158;48.750;9.078;2024-01-27T12:15:37;8.00;;;4.17;;
2299;SDS011;1158;48.750;9.078;2024-01-27T12:18:04;6.37;;;3.50;;
2299;SDS011;1158;48.750;9.078;2024-01-27T12:20:32;13.23;;;3.93;;
2299;SDS011;1158;48.750;9.078;2024-01-27T12:23:02;6.57;;;3.63;;
2299;SDS011;1158;48.750;9.078;2024-01-27T12:25:30;8.43;;;4.30;;
2299;SDS011;1158;48.750;9.078;2024-01-27T12:27:58;8.10;;;4.07;;
2299;SDS011;1158;48.750;9.078;2024-01-27T12:30:28;8.53;;;3.60;;
2299;SDS011;1158;48.750;9.078;2024-01-27T12:32:55;11.27;;;3.83;;
2299;SDS011;1158;48.750;9.078;2024-01-27T12:35:23;15.00;;;4.10;;
2299;SDS011;1158;48.750;9.078;2024-01-27T12:37:50;11.70;;;4.47;;
2299;SDS011;1158;48.750;9.078;2024-01-27T12:40:17;9.07;;;4.10;;
2299;SDS011;1158;48.750;9.078;2024-01-27T12:42:46;7.17;;;3.63;;
2299;SDS011;1158;48.750;9.078;2024-01-27T12:45:12;4.83;;;3.10;;
2299;SDS011;1158;48.750;9.078;2024-01-27T12:47:39;8.77;;;3.77;;
2299;SDS011;1158;48.750;9.078;2024-01-27T12:50:06;8.53;;;3.07;;
2299;SDS011;1158;48.750;9.078;2024-01-27T12:52:34;9.40;;;3.30;;
2299;SDS011;1158;48.750;9.078;2024-01-27T12:55:02;6.70;;;3.47;;
2299;SDS011;1158;48.750;9.078;2024-01-27T12:57:29;5.43;;;3.60;;
2299;SDS011;1158;48.750;9.078;2024-01-27T12:59:57;6.87;;;3.77;;
2299;SDS011;1158;48.750;9.078;2024-01-27T13:02:23;5.03;;;2.70;;
2299;SDS011;1158;48.750;9.078;2024-01-27T13:04:50;7.77;;;3.10;;
2299;SDS011;1158;48.750;9.078;2024-01-27T13:07:17;8.60;;;3.27;;
2299;SDS011;1158;48.750;9.078;2024-01-27T13:09:44;10.60;;;4.20;;
2299;SDS011;1158;48.750;9.078;2024-01-27T13:12:11;5.63;;;2.87;;
2299;SDS011;1158;48.750;9.078;2024-01-27T13:14:38;7.87;;;3.10;;
2299;SDS011;1158;48.750;9.078;2024-01-27T13:17:06;5.70;;;2.80;;
2299;SDS011;1158;48.750;9.078;2024-01-27T13:19:33;5.97;;;2.67;;
2299;SDS011;1158;48.750;9.078;2024-01-27T13:22:00;8.40;;;2.20;;
2299;SDS011;1158;48.750;9.078;2024-01-27T13:24:27;4.60;;;2.40;;
2299;SDS011;1158;48.750;9.078;2024-01-27T13:26:54;3.90;;;2.47;;
2299;SDS011;1158;48.750;9.078;2024-01-27T13:29:21;7.30;;;2.23;;
2299;SDS011;1158;48.750;9.078;2024-01-27T13:31:48;7.83;;;2.97;;
2299;SDS011;1158;48.750;9.078;2024-01-27T13:34:17;3.00;;;1.70;;
2299;SDS011;1158;48.750;9.078;2024-01-27T13:36:43;5.10;;;2.07;;
2299;SDS011;1158;48.750;9.078;2024-01-27T13:39:10;9.87;;;2.60;;
2299;SDS011;1158;48.750;9.078;2024-01-27T13:41:37;7.10;;;2.20;;
2299;SDS011;1158;48.750;9.078;2024-01-27T13:44:04;4.30;;;2.37;;
2299;SDS011;1158;48.750;9.078;2024-01-27T13:46:30;6.37;;;2.63;;
2299;SDS011;1158;48.750;9.078;2024-01-27T13:48:57;2.63;;;2.10;;
2299;SDS011;1158;48.750;9.078;2024-01-27T13:51:25;8.40;;;1.93;;
2299;SDS011;1158;48.750;9.078;2024-01-27T13:53:52;3.53;;;1.80;;
2299;SDS011;1158;48.750;9.078;2024-01-27T13:56:19;5.90;;;2.23;;
2299;SDS011;1158;48.750;9.078;2024-01-27T13:58:46;5.20;;;1.70;;
2299;SDS011;1158;48.750;9.078;2024-01-27T14:01:12;3.77;;;2.00;;
2299;SDS011;1158;48.750;9.078;2024-01-27T14:03:39;8.47;;;2.17;;
2299;SDS011;1158;48.750;9.078;2024-01-27T14:06:06;4.37;;;1.80;;
2299;SDS011;1158;48.750;9.078;2024-01-27T14:08:38;5.80;;;2.43;;
2299;SDS011;1158;48.750;9.078;2024-01-27T14:11:05;3.73;;;2.10;;
2299;SDS011;1158;48.750;9.078;2024-01-27T14:13:32;4.60;;;2.20;;
2299;SDS011;1158;48.750;9.078;2024-01-27T14:15:59;3.57;;;2.20;;
2299;SDS011;1158;48.750;9.078;2024-01-27T14:18:25;4.27;;;1.90;;
2299;SDS011;1158;48.750;9.078;2024-01-27T14:20:53;3.77;;;2.03;;
2299;SDS011;1158;48.750;9.078;2024-01-27T14:23:20;4.20;;;2.33;;
2299;SDS011;1158;48.750;9.078;2024-01-27T14:25:48;5.07;;;2.23;;
2299;SDS011;1158;48.750;9.078;2024-01-27T14:28:15;5.93;;;2.60;;
2299;SDS011;1158;48.750;9.078;2024-01-27T14:30:42;5.70;;;2.80;;
2299;SDS011;1158;48.750;9.078;2024-01-27T14:33:09;6.87;;;2.60;;
2299;SDS011;1158;48.750;9.078;2024-01-27T14:35:36;3.03;;;1.90;;
2299;SDS011;1158;48.750;9.078;2024-01-27T14:38:04;5.80;;;2.40;;
2299;SDS011;1158;48.750;9.078;2024-01-27T14:40:33;8.80;;;2.87;;
2299;SDS011;1158;48.750;9.078;2024-01-27T14:43:03;5.50;;;2.47;;
2299;SDS011;1158;48.750;9.078;2024-01-27T14:45:34;6.90;;;2.53;;
2299;SDS011;1158;48.750;9.078;2024-01-27T14:48:01;5.40;;;2.37;;
2299;SDS011;1158;48.750;9.078;2024-01-27T14:50:28;5.80;;;2.17;;
2299;SDS011;1158;48.750;9.078;2024-01-27T14:52:56;5.37;;;2.37;;
2299;SDS011;1158;48.750;9.078;2024-01-27T14:55:23;5.80;;;2.40;;
2299;SDS011;1158;48.750;9.078;2024-01-27T14:57:51;6.60;;;2.87;;
2299;SDS011;1158;48.750;9.078;2024-01-27T15:00:19;7.60;;;2.73;;
2299;SDS011;1158;48.750;9.078;2024-01-27T15:02:46;3.93;;;2.37;;
2299;SDS011;1158;48.750;9.078;2024-01-27T15:05:13;5.73;;;2.60;;
2299;SDS011;1158;48.750;9.078;2024-01-27T15:07:40;5.17;;;2.77;;
2299;SDS011;1158;48.750;9.078;2024-01-27T15:10:07;5.00;;;2.97;;
2299;SDS011;1158;48.750;9.078;2024-01-27T15:12:34;8.37;;;3.23;;